X  CloseMetar Aviation Weather Data     KSDL Scottsdale Airport

Temperature

54°F Temperature

21°F Dewpoint

28% Humidity



Wind

 0 MPH

 0 KM/H

 0 M/S

 0 KTS



Calm
Due North
Current Conditions

Clear Clear
Pressure 1017.92 (hPa) - 30.06 (in)
Visibility 9.9 (mi) - 16 (km)
Airport
Airport-code KSDL

Location Scottsdale Airport 15 (mi)

Metar:
KSDL 020453Z AUTO 00000KT 10SM CLR 12/M06 A3006 RMK AO2 SLP169 T01221056

Time: 12-01-2020 21:53